Latest Weather Observations for Wattamolla

IDN60901

Issued at 2:05 pm EST Friday 22 August 2014 (issued every 10 minutes, with the page automatically refreshed every 10 minutes)

About weather observations | Map of Sydney area stations | Latest observations for Sydney area | Other Formats
Station Details ID: 066208 Name: WATTAMOLLA AWS Lat: -34.14 Lon: 151.12 Height: 44.0 m
Data from the previous 72 hours. | See also: Recent months for locations in New South Wales
Date/Time
EST
Tmp

°C
App
Tmp
°C
Dew
Point
°C
Rel
Hum
%
Delta-T

°C
Wind Press
QNH
hPa
Press
MSL
hPa
Rain
since
9 am
mm
Dir
 
Spd
km/h
Gust
km/h
Spd
kts
Gust
kts
22/02:00pm - - - - - S 26 30 14 16 - - -
22/01:30pm - - - - - S 32 35 17 19 - - -
22/01:00pm - - - - - S 32 37 17 20 - - -
22/12:30pm - - - - - S 30 37 16 20 - - -
22/12:00pm - - - - - S 28 37 15 20 - - -
22/11:30am - - - - - S 28 39 15 21 - - -
22/11:00am - - - - - S 26 39 14 21 - - -
22/10:30am - - - - - S 20 30 11 16 - - -
22/10:00am - - - - - S 17 26 9 14 - - -
22/09:30am - - - - - SSW 13 24 7 13 - - -
22/09:00am - - - - - S 13 19 7 10 - - -
22/08:30am - - - - - S 32 41 17 22 - - -
22/08:00am - - - - - SSW 17 28 9 15 - - -
22/07:30am - - - - - S 24 35 13 19 - - -
22/07:00am - - - - - SSE 24 30 13 16 - - -
22/06:30am - - - - - SSE 26 32 14 17 - - -
22/06:00am - - - - - SSE 28 35 15 19 - - -
22/05:30am - - - - - SSE 30 37 16 20 - - -
22/05:00am - - - - - S 24 35 13 19 - - -
22/04:30am - - - - - S 26 33 14 18 - - -
22/04:00am - - - - - S 30 39 16 21 - - -
22/03:30am - - - - - SSE 32 37 17 20 - - -
22/03:00am - - - - - S 30 37 16 20 - - -
22/02:30am - - - - - S 30 37 16 20 - - -
22/02:00am - - - - - S 28 33 15 18 - - -
22/01:30am - - - - - S 28 33 15 18 - - -
22/01:00am - - - - - S 26 35 14 19 - - -
22/12:30am - - - - - S 20 30 11 16 - - -
22/12:00am - - - - - S 20 30 11 16 - - -
 
Date/Time
EST
Tmp

°C
App
Tmp
°C
Dew
Point
°C
Rel
Hum
%
Delta-T

°C
Wind Press
QNH
hPa
Press
MSL
hPa
Rain
since
9 am
mm
Dir
 
Spd
km/h
Gust
km/h
Spd
kts
Gust
kts
21/11:30pm - - - - - S 30 35 16 19 - - -
21/11:00pm - - - - - SSE 30 35 16 19 - - -
21/10:30pm - - - - - S 22 39 12 21 - - -
21/10:00pm - - - - - WSW 13 19 7 10 - - -
21/09:30pm - - - - - SW 15 24 8 13 - - -
21/09:00pm - - - - - S 32 37 17 20 - - -
21/08:30pm - - - - - SSE 30 39 16 21 - - -
21/08:00pm - - - - - S 37 43 20 23 - - -
21/07:30pm - - - - - S 35 44 19 24 - - -
21/07:00pm - - - - - S 43 52 23 28 - - -
21/06:30pm - - - - - S 43 54 23 29 - - -
21/06:20pm - - - - - SSE 30 50 16 27 - - -
21/06:00pm - - - - - S 37 48 20 26 - - -
21/05:30pm - - - - - SSE 33 44 18 24 - - -
21/05:10pm - - - - - SSE 28 48 15 26 - - -
21/05:00pm - - - - - S 35 41 19 22 - - -
21/04:30pm - - - - - S 41 48 22 26 - - -
21/04:00pm - - - - - S 41 48 22 26 - - -
21/03:30pm - - - - - S 43 48 23 26 - - -
21/03:00pm - - - - - S 37 43 20 23 - - -
21/02:30pm - - - - - S 35 41 19 22 - - -
21/02:00pm - - - - - S 35 39 19 21 - - -
21/01:30pm - - - - - S 35 39 19 21 - - -
21/01:00pm - - - - - S 39 46 21 25 - - -
21/12:30pm - - - - - S 35 43 19 23 - - -
21/12:00pm - - - - - S 35 43 19 23 - - -
21/11:30am - - - - - S 35 41 19 22 - - -
21/11:00am - - - - - S 32 37 17 20 - - -
21/10:30am - - - - - S 37 43 20 23 - - -
21/10:00am - - - - - S 35 43 19 23 - - -
21/09:30am - - - - - S 32 39 17 21 - - -
21/09:00am - - - - - S 24 37 13 20 - - -
21/08:30am - - - - - S 32 41 17 22 - - -
21/08:00am - - - - - S 30 46 16 25 - - -
21/07:51am - - - - - S 28 46 15 25 - - -
21/07:30am - - - - - S 32 41 17 22 - - -
21/07:00am - - - - - S 35 46 19 25 - - -
21/06:30am - - - - - - - - - - - - -
21/06:16am - - - - - S 28 46 15 25 - - -
21/06:00am - - - - - S 32 41 17 22 - - -
21/05:30am - - - - - S 37 48 20 26 - - -
21/05:00am - - - - - S 41 50 22 27 - - -
21/04:30am - - - - - S 43 54 23 29 - - -
21/04:00am - - - - - S 37 44 20 24 - - -
21/03:30am - - - - - S 41 50 22 27 - - -
21/03:12am - - - - - SSE 41 59 22 32 - - -
21/03:00am - - - - - S 43 57 23 31 - - -
21/02:30am - - - - - S 37 46 20 25 - - -
21/02:00am - - - - - S 37 48 20 26 - - -
21/01:30am - - - - - S 39 46 21 25 - - -
21/01:00am - - - - - S 37 43 20 23 - - -
21/12:30am - - - - - S 41 48 22 26 - - -
21/12:00am - - - - - S 35 46 19 25 - - -
 
Date/Time
EST
Tmp

°C
App
Tmp
°C
Dew
Point
°C
Rel
Hum
%
Delta-T

°C
Wind Press
QNH
hPa
Press
MSL
hPa
Rain
since
9 am
mm
Dir
 
Spd
km/h
Gust
km/h
Spd
kts
Gust
kts
20/11:30pm - - - - - S 30 43 16 23 - - -
20/11:00pm - - - - - S 24 35 13 19 - - -
20/10:30pm - - - - - S 28 41 15 22 - - -
20/10:00pm - - - - - S 19 30 10 16 - - -
20/09:30pm - - - - - SSW 17 26 9 14 - - -
20/09:00pm - - - - - SSW 15 26 8 14 - - -
20/08:30pm - - - - - S 22 33 12 18 - - -
20/08:23pm - - - - - S 28 48 15 26 - - -
20/08:00pm - - - - - S 37 46 20 25 - - -
20/07:30pm - - - - - S 39 50 21 27 - - -
20/07:00pm - - - - - S 41 48 22 26 - - -
20/06:30pm - - - - - S 39 48 21 26 - - -
20/06:00pm - - - - - S 39 48 21 26 - - -
20/05:30pm - - - - - S 39 50 21 27 - - -
20/05:00pm - - - - - S 39 50 21 27 - - -
20/04:30pm - - - - - S 37 46 20 25 - - -
20/04:00pm - - - - - S 43 50 23 27 - - -
20/03:30pm - - - - - S 41 50 22 27 - - -
20/03:00pm - - - - - S 41 52 22 28 - - -
20/02:30pm - - - - - S 43 54 23 29 - - -
20/02:00pm - - - - - S 48 56 26 30 - - -
20/01:30pm - - - - - S 44 54 24 29 - - -
20/01:00pm - - - - - S 43 54 23 29 - - -
20/12:30pm - - - - - S 46 54 25 29 - - -
20/12:00pm - - - - - S 48 56 26 30 - - -
20/11:30am - - - - - S 48 57 26 31 - - -
20/11:00am - - - - - S 44 52 24 28 - - -
20/10:40am - - - - - S 50 69 27 37 - - -
20/10:30am - - - - - S 54 65 29 35 - - -
20/10:00am - - - - - S 50 59 27 32 - - -
20/09:30am - - - - - S 44 59 24 32 - - -
20/09:00am - - - - - S 43 61 23 33 - - -
20/08:31am - - - - - S 33 52 18 28 - - -
20/08:30am - - - - - S 35 52 19 28 - - -
20/08:09am - - - - - S 48 67 26 36 - - -
20/08:00am - - - - - S 57 67 31 36 - - -
20/07:57am - - - - - S 57 63 31 34 - - -
20/07:31am - - - - - S 35 56 19 30 - - -
20/07:30am - - - - - S 35 52 19 28 - - -
20/07:00am - - - - - S 41 61 22 33 - - -
20/06:59am - - - - - S 41 61 22 33 - - -
20/06:30am - - - - - S 46 59 25 32 - - -
20/06:01am - - - - - S 35 54 19 29 - - -
20/06:00am - - - - - S 37 54 20 29 - - -
20/05:42am - - - - - S 32 52 17 28 - - -
20/05:30am - - - - - S 54 63 29 34 - - -
20/05:01am - - - - - S 33 52 18 28 - - -
20/05:00am - - - - - S 33 48 18 26 - - -
20/04:49am - - - - - S 41 59 22 32 - - -
20/04:30am - - - - - S 48 61 26 33 - - -
20/04:20am - - - - - S 50 69 27 37 - - -
20/04:00am - - - - - S 54 63 29 34 - - -
20/03:30am - - - - - S 54 63 29 34 - - -
20/03:04am - - - - - S 56 74 30 40 - - -
20/03:00am - - - - - S 57 70 31 38 - - -
20/02:35am - - - - - S 61 70 33 38 - - -
20/02:30am - - - - - S 35 54 19 29 - - -
20/02:27am - - - - - S 35 54 19 29 - - -
20/02:00am - - - - - S 46 59 25 32 - - -
20/01:30am - - - - - S 44 61 24 33 - - -
20/01:17am - - - - - S 43 69 23 37 - - -
20/01:00am - - - - - S 50 63 27 34 - - -
20/12:31am - - - - - S 48 67 26 36 - - -
20/12:30am - - - - - S 50 67 27 36 - - -
20/12:20am - - - - - S 56 74 30 40 - - -
20/12:00am - - - - - S 61 72 33 39 - - -
 
Date/Time
EST
Tmp

°C
App
Tmp
°C
Dew
Point
°C
Rel
Hum
%
Delta-T

°C
Wind Press
QNH
hPa
Press
MSL
hPa
Rain
since
9 am
mm
Dir
 
Spd
km/h
Gust
km/h
Spd
kts
Gust
kts
19/11:30pm - - - - - S 59 74 32 40 - - -
19/11:00pm - - - - - S 59 72 32 39 - - -
19/10:31pm - - - - - S 59 78 32 42 - - -
19/10:30pm - - - - - S 59 76 32 41 - - -
19/10:00pm - - - - - S 57 76 31 41 - - -
19/09:51pm - - - - - S 57 76 31 41 - - -
19/09:30pm - - - - - S 59 72 32 39 - - -
19/09:00pm - - - - - S 59 78 32 42 - - -
19/08:40pm - - - - - S 65 83 35 45 - - -
19/08:30pm - - - - - S 72 83 39 45 - - -
19/08:00pm - - - - - S 72 87 39 47 - - -
19/07:41pm - - - - - S 67 85 36 46 - - -
19/07:30pm - - - - - S 74 91 40 49 - - -
19/07:26pm - - - - - S 70 91 38 49 - - -
19/07:00pm - - - - - S 72 85 39 46 - - -
19/06:30pm - - - - - S 80 95 43 51 - - -
19/06:00pm - - - - - S 72 95 39 51 - - -
19/05:49pm - - - - - S 69 87 37 47 - - -
19/05:30pm - - - - - S 72 89 39 48 - - -
19/05:14pm - - - - - S 72 91 39 49 - - -
19/05:02pm - - - - - S 74 82 40 44 - - -
19/05:00pm - - - - - S 54 76 29 41 - - -
19/04:54pm - - - - - S 48 67 26 36 - - -
19/04:30pm - - - - - S 67 91 36 49 - - -
19/04:03pm - - - - - S 65 83 35 45 - - -
19/04:00pm - - - - - S 67 83 36 45 - - -
19/03:30pm - - - - - S 65 83 35 45 - - -
19/03:11pm - - - - - S 67 85 36 46 - - -
19/03:00pm - - - - - S 63 72 34 39 - - -
19/02:30pm - - - - - S 65 85 35 46 - - -

Latest Capital City Observations: Canberra | Sydney | Melbourne | Brisbane | Adelaide | Perth | Hobart | Darwin

Other Formats:

Comma delimited format used in spreadsheet applications
http://www.bom.gov.au/fwo/IDN60901/IDN60901.95752.axf

JavaScript Object Notation format (JSON) in row-major order
http://www.bom.gov.au/fwo/IDN60901/IDN60901.95752.json